Akiachak, Alaska
Current Conditions -  °F | °C
As of 4:15 PM on Thursday 27 Nov 2014 (Local Time) from PFKW Reporting Station
Light Rain Light Rain  
Wind Chill: 25°   Ceiling: 2800
Heat Index: 34°   Visibility: 10mi
Dew Point: 32°   Wind: 12mph
Humidity: 93%   Direction: 120°ESE
Pressure: 29.96"   Gusts: NA
Location:  60.91°N, 161.44°W
Report Text: PFKW 280115Z AUTO 12010KT 10SM -RA BKN028 OVC034 01/00 A2996 RMK AO2 P0000 FZRANO
Loading
Personal Weather Stations






























Interactive Weather Map New forecast layout! Learn more

10-Day Weather Forecast

Advertisements
Track Severe Weather on mobile